createdAt,value
2019-06-08T00:00:48.375Z,80.31
2019-06-08T00:03:16.856Z,80.72
2019-06-08T00:05:44.503Z,81.71
2019-06-08T00:08:12.969Z,81.44
2019-06-08T00:10:40.698Z,81.43
2019-06-08T00:13:08.481Z,81.83
2019-06-08T00:15:36.216Z,82.48
2019-06-08T00:18:04.053Z,82.69
2019-06-08T00:20:31.709Z,81.98
2019-06-08T00:22:59.321Z,82.54
2019-06-08T00:25:26.911Z,82.70
2019-06-08T00:27:54.447Z,82.89
2019-06-08T00:30:22.098Z,82.87
2019-06-08T00:32:49.608Z,83.57
2019-06-08T00:35:18.565Z,83.48
2019-06-08T00:37:46.223Z,83.57
2019-06-08T00:40:14.908Z,83.92
2019-06-08T00:42:42.459Z,84.25
2019-06-08T00:45:10.041Z,84.10
2019-06-08T00:47:47.641Z,84.82
2019-06-08T00:50:08.072Z,84.35
2019-06-08T00:52:35.782Z,83.11
2019-06-08T00:55:03.424Z,83.70
2019-06-08T00:57:31.036Z,83.61
2019-06-08T00:59:58.610Z,83.88
2019-06-08T01:02:26.785Z,83.84
2019-06-08T01:04:54.489Z,83.96
2019-06-08T01:07:22.142Z,83.93
2019-06-08T01:09:49.764Z,84.46
2019-06-08T01:12:18.617Z,84.60
2019-06-08T01:14:46.585Z,85.08
2019-06-08T01:17:14.190Z,85.10
2019-06-08T01:19:41.785Z,85.49
2019-06-08T01:22:09.391Z,85.63
2019-06-08T01:24:36.970Z,86.10
2019-06-08T01:27:04.776Z,86.10
2019-06-08T01:29:32.300Z,86.36
2019-06-08T01:31:59.901Z,86.10
2019-06-08T01:34:28.918Z,86.40
2019-06-08T01:36:56.634Z,86.62
2019-06-08T01:39:25.168Z,87.33
2019-06-08T01:41:52.983Z,87.22
2019-06-08T01:44:21.518Z,87.19
2019-06-08T01:46:49.140Z,87.37
2019-06-08T01:49:16.662Z,87.07
2019-06-08T01:51:44.280Z,87.03
2019-06-08T01:54:11.795Z,86.80
2019-06-08T01:56:39.424Z,86.93
2019-06-08T01:59:06.969Z,87.17
2019-06-08T02:01:34.733Z,87.20
2019-06-08T02:04:03.651Z,87.54
2019-06-08T02:06:32.347Z,88.01
2019-06-08T02:09:00.065Z,88.11
2019-06-08T02:11:28.818Z,88.12
2019-06-08T02:13:56.659Z,88.37
2019-06-08T02:16:25.621Z,88.28
2019-06-08T02:18:53.412Z,88.70
2019-06-08T02:21:21.047Z,88.87
2019-06-08T02:23:48.646Z,88.76
2019-06-08T02:26:16.193Z,88.80
2019-06-08T02:28:43.742Z,88.75
2019-06-08T02:31:11.441Z,89.65
2019-06-08T02:33:40.488Z,89.34
2019-06-08T02:36:08.224Z,89.64
2019-06-08T02:38:36.199Z,89.11
2019-06-08T02:41:03.788Z,89.08
2019-06-08T02:43:33.370Z,89.24
2019-06-08T02:46:01.218Z,89.36
2019-06-08T02:48:29.497Z,89.68
2019-06-08T02:50:57.692Z,89.93
2019-06-08T02:53:26.253Z,90.20
2019-06-08T02:55:54.017Z,90.05
2019-06-08T02:58:22.131Z,90.57
2019-06-08T03:00:50.583Z,91.14
2019-06-08T03:03:18.254Z,91.14
2019-06-08T03:05:48.379Z,90.78
2019-06-08T03:08:16.079Z,90.93
2019-06-08T03:10:43.653Z,90.88
2019-06-08T03:13:11.470Z,90.90
2019-06-08T03:15:40.910Z,90.33
2019-06-08T03:18:08.683Z,90.54
2019-06-08T03:20:37.877Z,90.04
2019-06-08T03:23:05.605Z,89.60
2019-06-08T03:25:42.018Z,89.24
2019-06-08T03:28:02.789Z,89.27
2019-06-08T03:30:34.199Z,89.16
2019-06-08T03:33:00.905Z,88.46
2019-06-08T03:35:28.484Z,88.85
2019-06-08T03:37:56.039Z,88.10
2019-06-08T03:40:23.654Z,87.73
2019-06-08T03:42:53.312Z,87.87
2019-06-08T03:45:21.710Z,88.06
2019-06-08T03:47:49.312Z,87.72
2019-06-08T03:50:17.253Z,87.01
2019-06-08T03:52:46.299Z,87.45
2019-06-08T03:55:14.190Z,87.66
2019-06-08T03:57:42.146Z,88.17
2019-06-08T04:00:13.370Z,86.95
2019-06-08T04:02:39.951Z,86.38
2019-06-08T04:05:09.135Z,85.82
2019-06-08T04:07:37.604Z,84.78
2019-06-08T04:10:05.642Z,84.30
2019-06-08T04:12:33.445Z,83.97
2019-06-08T04:15:01.096Z,83.48
2019-06-08T04:17:28.766Z,82.43
2019-06-08T04:20:10.243Z,82.98
2019-06-08T04:22:25.970Z,83.35
2019-06-08T04:24:53.523Z,82.09
2019-06-08T04:27:21.128Z,82.82
2019-06-08T04:29:50.170Z,83.08
2019-06-08T04:32:18.103Z,82.28
2019-06-08T04:34:47.383Z,81.71
2019-06-08T04:37:16.008Z,82.01
2019-06-08T04:39:44.506Z,81.11
2019-06-08T04:42:12.213Z,80.98
2019-06-08T04:44:40.490Z,80.23
2019-06-08T04:47:09.210Z,79.70
2019-06-08T04:49:38.393Z,79.80
2019-06-08T04:52:06.166Z,80.72
2019-06-08T04:54:33.750Z,79.63
2019-06-08T04:57:01.473Z,78.83
2019-06-08T04:59:29.060Z,78.42
2019-06-08T05:01:56.643Z,77.66
2019-06-08T05:04:24.419Z,77.71
2019-06-08T05:06:51.988Z,78.57
2019-06-08T05:09:19.686Z,78.40
2019-06-08T05:11:47.554Z,75.48
2019-06-08T05:14:15.338Z,75.05
2019-06-08T05:16:43.221Z,72.61
2019-06-08T05:19:10.967Z,69.96
2019-06-08T05:21:39.489Z,69.89
2019-06-08T05:24:07.245Z,70.21
2019-06-08T05:26:34.864Z,69.66
2019-06-08T05:29:02.464Z,67.26
2019-06-08T05:31:30.067Z,66.98
2019-06-08T05:33:57.693Z,65.98
2019-06-08T05:36:25.278Z,64.42
2019-06-08T05:38:52.967Z,64.76
2019-06-08T05:41:23.963Z,64.03
2019-06-08T05:43:50.490Z,64.92
2019-06-08T05:46:18.277Z,64.11
2019-06-08T05:48:46.298Z,63.38
2019-06-08T05:51:14.246Z,62.67
2019-06-08T05:53:43.817Z,61.72
2019-06-08T05:56:11.658Z,62.14
2019-06-08T05:58:39.893Z,61.77
2019-06-08T06:01:07.843Z,62.51
2019-06-08T06:03:36.913Z,62.25
2019-06-08T06:06:04.744Z,61.82
2019-06-08T06:08:32.744Z,62.47
2019-06-08T06:11:01.022Z,59.86
2019-06-08T06:13:29.252Z,60.07
2019-06-08T06:15:57.283Z,60.29
2019-06-08T06:18:25.378Z,60.29
2019-06-08T06:21:09.511Z,60.42
2019-06-08T06:23:23.480Z,60.08
2019-06-08T06:25:51.875Z,60.77
2019-06-08T06:28:19.869Z,60.73
2019-06-08T06:30:48.473Z,59.47
2019-06-08T06:33:17.565Z,58.15
2019-06-08T06:35:45.812Z,58.60
2019-06-08T06:38:13.800Z,58.05
2019-06-08T06:40:41.969Z,57.98
2019-06-08T06:43:11.017Z,58.35
2019-06-08T06:45:39.107Z,57.30
2019-06-08T06:48:07.321Z,56.56
2019-06-08T06:50:35.501Z,57.03
2019-06-08T06:53:03.894Z,56.37
2019-06-08T06:55:32.129Z,55.99
2019-06-08T06:58:00.045Z,55.81
2019-06-08T07:00:31.534Z,55.13
2019-06-08T07:03:00.058Z,54.77
2019-06-08T07:05:28.309Z,54.43
2019-06-08T07:07:56.450Z,53.17
2019-06-08T07:10:24.459Z,53.26
2019-06-08T07:12:52.839Z,53.99
2019-06-08T07:15:26.652Z,53.45
2019-06-08T07:17:55.055Z,52.55
2019-06-08T07:20:24.114Z,51.82
2019-06-08T07:22:52.270Z,51.05
2019-06-08T07:25:21.396Z,49.59
2019-06-08T07:27:50.514Z,49.50
2019-06-08T07:30:18.636Z,48.85
2019-06-08T07:32:48.008Z,49.45
2019-06-08T07:35:18.095Z,47.78
2019-06-08T07:37:48.439Z,48.20
2019-06-08T07:40:17.382Z,51.43
2019-06-08T07:42:45.472Z,48.94
2019-06-08T07:45:13.796Z,46.72
2019-06-08T07:47:41.748Z,48.37
2019-06-08T07:50:10.007Z,48.26
2019-06-08T07:52:38.181Z,47.16
2019-06-08T07:55:06.352Z,45.91
2019-06-08T07:57:34.445Z,45.21
2019-06-08T08:00:09.158Z,45.67
2019-06-08T08:02:32.091Z,44.50
2019-06-08T08:05:00.155Z,46.10
2019-06-08T08:07:28.142Z,45.81
2019-06-08T08:09:56.966Z,44.21
2019-06-08T08:12:25.092Z,43.72
2019-06-08T08:14:53.335Z,45.15
2019-06-08T08:17:21.236Z,45.58
2019-06-08T08:19:49.141Z,45.46
2019-06-08T08:22:23.136Z,42.65
2019-06-08T08:24:50.391Z,43.60
2019-06-08T08:27:17.940Z,42.99
2019-06-08T08:29:47.588Z,42.87
2019-06-08T08:32:18.609Z,42.50
2019-06-08T08:34:47.664Z,44.32
2019-06-08T08:37:17.600Z,44.22
2019-06-08T08:39:47.311Z,43.22
2019-06-08T08:42:15.180Z,43.65
2019-06-08T08:44:43.149Z,43.49
2019-06-08T08:47:11.243Z,42.85
2019-06-08T08:49:39.284Z,41.04
2019-06-08T08:52:08.787Z,43.80
2019-06-08T08:54:37.727Z,41.59
2019-06-08T08:57:08.375Z,41.06
2019-06-08T08:59:38.236Z,40.58
2019-06-08T09:02:08.381Z,39.53
2019-06-08T09:04:38.024Z,39.29
2019-06-08T09:07:10.280Z,41.03
2019-06-08T09:09:38.718Z,39.81
2019-06-08T09:12:08.355Z,40.55
2019-06-08T09:14:38.718Z,41.12
2019-06-08T09:17:08.606Z,40.84
2019-06-08T09:19:38.237Z,37.91
2019-06-08T09:22:08.336Z,39.45
2019-06-08T09:24:38.787Z,40.86
2019-06-08T09:27:08.071Z,39.91
2019-06-08T09:29:38.588Z,38.98
2019-06-08T09:32:07.991Z,39.09
2019-06-08T09:34:38.370Z,39.94
2019-06-08T09:37:07.853Z,40.12
2019-06-08T09:39:36.345Z,39.35
2019-06-08T09:42:05.440Z,38.25
2019-06-08T09:44:33.526Z,39.85
2019-06-08T09:47:07.838Z,37.71
2019-06-08T09:49:31.707Z,38.20
2019-06-08T09:52:01.927Z,37.48
2019-06-08T09:54:29.673Z,36.81
2019-06-08T09:57:00.942Z,39.20
2019-06-08T09:59:28.545Z,38.12
2019-06-08T10:02:00.977Z,36.21
2019-06-08T10:04:29.139Z,37.67
2019-06-08T10:07:00.224Z,37.62
2019-06-08T10:09:28.421Z,36.97
2019-06-08T10:11:59.093Z,36.11
2019-06-08T10:14:28.229Z,37.00
2019-06-08T10:16:59.140Z,37.28
2019-06-08T10:19:26.278Z,37.29
2019-06-08T10:21:54.836Z,40.24
2019-06-08T10:24:22.857Z,41.48
2019-06-08T10:26:50.841Z,41.30
2019-06-08T10:29:18.802Z,41.73
2019-06-08T10:31:48.339Z,42.42
2019-06-08T10:34:17.185Z,43.58
2019-06-08T10:36:44.821Z,43.26
2019-06-08T10:39:12.648Z,43.50
2019-06-08T10:41:40.825Z,45.65
2019-06-08T10:44:13.841Z,46.54
2019-06-08T10:46:40.606Z,46.76
2019-06-08T10:49:13.608Z,47.34
2019-06-08T10:51:40.750Z,46.74
2019-06-08T10:54:09.474Z,46.20
2019-06-08T10:56:38.588Z,46.33
2019-06-08T10:59:09.976Z,44.91
2019-06-08T11:01:38.595Z,45.23
2019-06-08T11:04:07.118Z,45.71
2019-06-08T11:06:39.906Z,45.62
2019-06-08T11:09:11.961Z,45.06
2019-06-08T11:11:38.141Z,46.02
2019-06-08T11:14:10.706Z,45.49
2019-06-08T11:16:38.524Z,45.67
2019-06-08T11:19:11.441Z,45.78
2019-06-08T11:21:38.574Z,45.96
2019-06-08T11:24:19.549Z,46.24
2019-06-08T11:26:40.028Z,46.36
2019-06-08T11:29:09.596Z,43.90
2019-06-08T11:31:39.049Z,44.34
2019-06-08T11:34:08.439Z,44.63
2019-06-08T11:36:39.077Z,43.52
2019-06-08T11:39:09.118Z,44.14
2019-06-08T11:41:36.745Z,44.82
2019-06-08T11:44:05.495Z,44.82
2019-06-08T11:46:34.634Z,46.34
2019-06-08T11:49:05.056Z,46.69
2019-06-08T11:51:32.680Z,48.20
2019-06-08T11:54:01.130Z,48.90
2019-06-08T11:56:31.021Z,48.27
2019-06-08T11:59:00.995Z,48.93
2019-06-08T12:01:30.049Z,49.27
2019-06-08T12:03:58.080Z,47.69
2019-06-08T12:06:26.144Z,47.49
2019-06-08T12:08:53.937Z,47.43
2019-06-08T12:11:23.205Z,47.44
2019-06-08T12:13:51.278Z,47.41
2019-06-08T12:16:22.173Z,47.11
2019-06-08T12:18:49.478Z,45.80
2019-06-08T12:21:18.588Z,45.16
2019-06-08T12:23:46.658Z,46.34
2019-06-08T12:26:14.852Z,46.65
2019-06-08T12:28:43.032Z,45.32
2019-06-08T12:31:15.664Z,46.31
2019-06-08T12:33:41.874Z,45.87
2019-06-08T12:36:13.658Z,46.24
2019-06-08T12:38:39.712Z,47.50
2019-06-08T12:41:09.588Z,47.43
2019-06-08T12:43:38.562Z,47.87
2019-06-08T12:46:10.618Z,48.81
2019-06-08T12:48:38.484Z,50.21
2019-06-08T12:51:09.923Z,50.37
2019-06-08T12:53:38.160Z,51.64
2019-06-08T12:56:09.071Z,52.46
2019-06-08T12:58:38.687Z,52.20
2019-06-08T13:01:08.221Z,52.11
2019-06-08T13:03:37.760Z,52.35
2019-06-08T13:06:07.898Z,52.95
2019-06-08T13:08:35.595Z,51.33
2019-06-08T13:11:03.177Z,52.89
2019-06-08T13:13:30.792Z,53.17
2019-06-08T13:15:58.783Z,52.58
2019-06-08T13:18:26.851Z,53.54
2019-06-08T13:20:54.849Z,52.48
2019-06-08T13:23:23.001Z,52.94
2019-06-08T13:25:51.024Z,53.08
2019-06-08T13:28:24.706Z,53.78
2019-06-08T13:30:49.089Z,52.45
2019-06-08T13:33:18.183Z,51.98
2019-06-08T13:35:48.010Z,50.39
2019-06-08T13:38:19.645Z,48.78
2019-06-08T13:40:48.443Z,49.85
2019-06-08T13:43:19.799Z,49.12
2019-06-08T13:45:48.567Z,48.39
2019-06-08T13:48:18.995Z,48.38
2019-06-08T13:50:49.926Z,49.27
2019-06-08T13:53:20.692Z,49.91
2019-06-08T13:55:53.309Z,48.60
2019-06-08T13:58:19.316Z,50.73
2019-06-08T14:00:47.782Z,51.03
2019-06-08T14:03:18.199Z,50.79
2019-06-08T14:05:47.811Z,50.52
2019-06-08T14:08:17.186Z,50.07
2019-06-08T14:10:45.560Z,50.10
2019-06-08T14:13:14.982Z,50.39
2019-06-08T14:15:43.126Z,48.75
2019-06-08T14:18:10.963Z,49.31
2019-06-08T14:20:38.990Z,49.65
2019-06-08T14:23:09.225Z,49.22
2019-06-08T14:25:49.789Z,49.80
2019-06-08T14:28:06.724Z,48.79
2019-06-08T14:30:37.647Z,48.46
2019-06-08T14:33:08.012Z,48.58
2019-06-08T14:35:35.341Z,49.25
2019-06-08T14:38:03.332Z,48.89
2019-06-08T14:40:33.082Z,48.59
2019-06-08T14:43:01.488Z,48.87
2019-06-08T14:45:31.059Z,48.94
2019-06-08T14:47:59.344Z,48.06
2019-06-08T14:50:30.730Z,48.45
2019-06-08T14:52:58.836Z,47.88
2019-06-08T14:55:33.244Z,46.47
2019-06-08T14:57:57.986Z,46.32
2019-06-08T15:00:27.523Z,46.10
2019-06-08T15:02:55.691Z,46.13
2019-06-08T15:05:23.510Z,45.22
2019-06-08T15:07:51.497Z,45.81
2019-06-08T15:10:21.467Z,45.49
2019-06-08T15:12:48.960Z,45.57
2019-06-08T15:15:18.458Z,45.79
2019-06-08T15:17:47.720Z,44.81
2019-06-08T15:20:17.675Z,45.15
2019-06-08T15:22:45.614Z,45.17
2019-06-08T15:25:13.235Z,46.35
2019-06-08T15:27:40.857Z,47.12
2019-06-08T15:30:10.092Z,47.14
2019-06-08T15:32:38.656Z,45.21
2019-06-08T15:35:08.141Z,45.50
2019-06-08T15:37:38.016Z,45.46
2019-06-08T15:40:07.647Z,46.02
2019-06-08T15:42:35.857Z,46.75
2019-06-08T15:45:04.864Z,46.76
2019-06-08T15:47:32.611Z,44.96
2019-06-08T15:50:00.917Z,45.49
2019-06-08T15:52:30.876Z,46.43
2019-06-08T15:55:01.386Z,45.31
2019-06-08T15:57:31.100Z,45.74
2019-06-08T15:59:58.674Z,45.21
2019-06-08T16:02:27.325Z,44.83
2019-06-08T16:04:55.601Z,46.61
2019-06-08T16:07:29.408Z,45.96
2019-06-08T16:09:53.416Z,46.84
2019-06-08T16:12:21.421Z,46.51
2019-06-08T16:14:49.285Z,47.11
2019-06-08T16:17:17.325Z,47.63
2019-06-08T16:19:45.218Z,47.19
2019-06-08T16:22:13.041Z,46.86
2019-06-08T16:24:41.153Z,47.01
2019-06-08T16:27:09.023Z,47.33
2019-06-08T16:29:36.786Z,46.75
2019-06-08T16:32:04.741Z,47.67
2019-06-08T16:34:33.611Z,48.14
2019-06-08T16:37:02.884Z,48.16
2019-06-08T16:39:30.944Z,47.81
2019-06-08T16:41:58.821Z,48.06
2019-06-08T16:44:28.023Z,48.47
2019-06-08T16:46:55.853Z,48.54
2019-06-08T16:49:23.943Z,48.00
2019-06-08T16:51:51.832Z,47.74
2019-06-08T16:54:20.904Z,48.04
2019-06-08T16:56:48.776Z,47.93
2019-06-08T16:59:19.576Z,48.46
2019-06-08T17:01:47.772Z,48.21
2019-06-08T17:04:15.618Z,48.55
2019-06-08T17:06:43.520Z,48.24
2019-06-08T17:09:11.397Z,48.51
2019-06-08T17:11:39.442Z,48.43
2019-06-08T17:14:08.257Z,49.22
2019-06-08T17:16:36.414Z,49.45
2019-06-08T17:19:04.567Z,50.40
2019-06-08T17:21:32.305Z,49.17
2019-06-08T17:23:59.853Z,48.29
2019-06-08T17:26:27.892Z,48.39
2019-06-08T17:28:55.951Z,48.72
2019-06-08T17:31:23.883Z,48.34
2019-06-08T17:33:51.897Z,49.24
2019-06-08T17:36:19.812Z,48.90
2019-06-08T17:38:47.848Z,50.11
2019-06-08T17:41:15.938Z,49.67
2019-06-08T17:43:44.098Z,49.28
2019-06-08T17:46:12.047Z,48.94
2019-06-08T17:48:40.706Z,49.42
2019-06-08T17:51:08.965Z,50.02
2019-06-08T17:53:37.066Z,49.57
2019-06-08T17:56:04.838Z,49.61
2019-06-08T17:58:33.072Z,49.33
2019-06-08T18:01:00.852Z,49.32
2019-06-08T18:03:29.047Z,49.19
2019-06-08T18:05:57.989Z,49.02
2019-06-08T18:08:28.171Z,49.55
2019-06-08T18:10:57.608Z,49.28
2019-06-08T18:13:27.259Z,49.35
2019-06-08T18:15:57.464Z,49.18
2019-06-08T18:18:25.097Z,49.44
2019-06-08T18:20:52.956Z,49.76
2019-06-08T18:23:21.009Z,50.16
2019-06-08T18:25:49.059Z,49.80
2019-06-08T18:28:17.953Z,49.98
2019-06-08T18:30:49.011Z,50.03
2019-06-08T18:33:17.924Z,50.16
2019-06-08T18:35:46.896Z,50.32
2019-06-08T18:38:14.688Z,50.37
2019-06-08T18:40:43.446Z,50.55
2019-06-08T18:43:11.249Z,50.50
2019-06-08T18:45:41.211Z,50.51
2019-06-08T18:48:08.332Z,50.51
2019-06-08T18:50:38.060Z,50.69
2019-06-08T18:53:07.104Z,50.90
2019-06-08T18:55:36.256Z,51.15
2019-06-08T18:58:16.343Z,51.47
2019-06-08T19:00:40.008Z,52.00
2019-06-08T19:03:07.165Z,51.71
2019-06-08T19:05:38.452Z,51.71
2019-06-08T19:08:07.009Z,51.56
2019-06-08T19:10:37.887Z,51.56
2019-06-08T19:13:05.878Z,51.22
2019-06-08T19:15:38.787Z,51.58
2019-06-08T19:18:05.331Z,52.02
2019-06-08T19:20:35.054Z,52.33
2019-06-08T19:23:03.346Z,52.46
2019-06-08T19:25:31.293Z,52.51
2019-06-08T19:27:59.375Z,52.51
2019-06-08T19:30:28.194Z,53.32
2019-06-08T19:32:58.003Z,53.60
2019-06-08T19:35:27.395Z,53.83
2019-06-08T19:37:58.143Z,54.33
2019-06-08T19:40:27.156Z,54.36
2019-06-08T19:42:58.015Z,54.64
2019-06-08T19:45:27.547Z,55.17
2019-06-08T19:47:57.578Z,57.17
2019-06-08T19:50:24.916Z,57.28
2019-06-08T19:52:53.537Z,57.91
2019-06-08T19:55:21.947Z,57.67
2019-06-08T19:57:51.786Z,57.73
2019-06-08T20:00:19.510Z,58.26
2019-06-08T20:02:51.915Z,59.88
2019-06-08T20:05:17.523Z,60.43
2019-06-08T20:07:45.106Z,60.62
2019-06-08T20:10:12.699Z,61.02
2019-06-08T20:12:41.214Z,61.76
2019-06-08T20:15:09.589Z,62.30
2019-06-08T20:17:37.371Z,62.95
2019-06-08T20:20:07.739Z,62.80
2019-06-08T20:22:37.310Z,62.93
2019-06-08T20:25:10.190Z,62.20
2019-06-08T20:27:37.241Z,62.91
2019-06-08T20:30:09.624Z,63.27
2019-06-08T20:32:35.640Z,63.90
2019-06-08T20:35:05.066Z,64.67
2019-06-08T20:37:33.330Z,63.85
2019-06-08T20:40:10.197Z,62.90
2019-06-08T20:42:31.249Z,62.97
2019-06-08T20:44:59.268Z,63.32
2019-06-08T20:47:27.694Z,64.28
2019-06-08T20:49:58.107Z,63.84
2019-06-08T20:52:28.016Z,65.79
2019-06-08T20:54:55.493Z,65.80
2019-06-08T20:57:23.380Z,66.38
2019-06-08T20:59:53.437Z,65.58
2019-06-08T21:02:21.297Z,67.60
2019-06-08T21:04:52.799Z,67.03
2019-06-08T21:07:19.172Z,67.37
2019-06-08T21:09:50.738Z,66.46
2019-06-08T21:12:17.766Z,65.70
2019-06-08T21:14:49.310Z,66.54
2019-06-08T21:17:17.904Z,67.71
2019-06-08T21:19:46.723Z,68.38
2019-06-08T21:22:14.707Z,69.32
2019-06-08T21:24:42.711Z,70.00
2019-06-08T21:27:10.542Z,70.13
2019-06-08T21:29:47.457Z,70.65
2019-06-08T21:32:09.711Z,70.62
2019-06-08T21:34:38.100Z,71.18
2019-06-08T21:37:06.127Z,71.33
2019-06-08T21:39:36.670Z,72.04
2019-06-08T21:42:04.099Z,71.95
2019-06-08T21:44:32.077Z,71.97
2019-06-08T21:47:01.582Z,72.74
2019-06-08T21:49:29.942Z,72.59
2019-06-08T21:52:00.823Z,72.79
2019-06-08T21:54:27.673Z,73.30
2019-06-08T21:56:58.868Z,73.82
2019-06-08T21:59:25.511Z,74.26
2019-06-08T22:01:54.724Z,73.97
2019-06-08T22:04:23.090Z,74.59
2019-06-08T22:06:51.910Z,74.46
2019-06-08T22:09:19.972Z,75.01
2019-06-08T22:11:47.810Z,74.73
2019-06-08T22:14:15.880Z,75.71
2019-06-08T22:16:43.962Z,75.98
2019-06-08T22:19:11.725Z,76.25
2019-06-08T22:21:39.467Z,76.45
2019-06-08T22:24:07.901Z,76.29
2019-06-08T22:26:35.933Z,76.54
2019-06-08T22:29:03.798Z,76.72
2019-06-08T22:31:32.080Z,76.96
2019-06-08T22:34:02.060Z,76.90
2019-06-08T22:36:29.793Z,76.31
2019-06-08T22:38:59.308Z,76.92
2019-06-08T22:41:28.060Z,76.46
2019-06-08T22:43:59.036Z,77.00
2019-06-08T22:46:25.338Z,77.52
2019-06-08T22:48:53.568Z,77.32
2019-06-08T22:51:22.393Z,77.26
2019-06-08T22:53:50.194Z,77.33
2019-06-08T22:56:18.453Z,77.87
2019-06-08T22:58:48.015Z,76.60
2019-06-08T23:01:18.197Z,77.48
2019-06-08T23:03:47.584Z,77.42
2019-06-08T23:06:17.715Z,76.87
2019-06-08T23:08:47.880Z,77.42
2019-06-08T23:11:17.834Z,77.57
2019-06-08T23:13:47.194Z,77.57
2019-06-08T23:16:15.003Z,78.17
2019-06-08T23:18:42.876Z,77.33
2019-06-08T23:21:10.927Z,77.28
2019-06-08T23:23:38.789Z,78.05
2019-06-08T23:26:10.177Z,78.26
2019-06-08T23:28:37.770Z,78.49
2019-06-08T23:31:19.425Z,78.44
2019-06-08T23:33:38.534Z,78.11
2019-06-08T23:36:39.465Z,78.79
2019-06-08T23:38:37.276Z,78.73
2019-06-08T23:41:05.616Z,78.78
2019-06-08T23:43:33.627Z,78.86
2019-06-08T23:46:02.366Z,79.38
2019-06-08T23:48:30.541Z,79.29
2019-06-08T23:50:59.082Z,79.22
2019-06-08T23:53:27.617Z,79.15
2019-06-08T23:55:55.274Z,79.48
2019-06-08T23:58:22.870Z,79.22
